sensor_id;sensor_type;location;lat;lon;timestamp;temperature;humidity
5924;DHT22;2987;50.884;14.818;2023-04-01T00:01:01;8.90;99.90
5924;DHT22;2987;50.884;14.818;2023-04-01T00:03:29;8.70;99.90
5924;DHT22;2987;50.884;14.818;2023-04-01T00:05:57;8.80;99.90
5924;DHT22;2987;50.884;14.818;2023-04-01T00:08:25;8.70;99.90
5924;DHT22;2987;50.884;14.818;2023-04-01T00:10:53;8.70;99.90
5924;DHT22;2987;50.884;14.818;2023-04-01T00:13:19;8.80;99.90
5924;DHT22;2987;50.884;14.818;2023-04-01T00:15:47;8.90;99.90
5924;DHT22;2987;50.884;14.818;2023-04-01T00:18:32;8.60;99.90
5924;DHT22;2987;50.884;14.818;2023-04-01T00:20:58;8.60;99.90
5924;DHT22;2987;50.884;14.818;2023-04-01T00:23:25;8.80;99.90
5924;DHT22;2987;50.884;14.818;2023-04-01T00:25:52;8.80;99.90
5924;DHT22;2987;50.884;14.818;2023-04-01T00:28:19;9.00;99.90
5924;DHT22;2987;50.884;14.818;2023-04-01T00:30:48;8.80;99.90
5924;DHT22;2987;50.884;14.818;2023-04-01T00:33:15;8.80;99.90
5924;DHT22;2987;50.884;14.818;2023-04-01T00:35:45;8.70;99.90
5924;DHT22;2987;50.884;14.818;2023-04-01T00:38:12;8.60;99.90
5924;DHT22;2987;50.884;14.818;2023-04-01T00:40:41;8.60;99.90
5924;DHT22;2987;50.884;14.818;2023-04-01T00:43:18;8.70;99.90
5924;DHT22;2987;50.884;14.818;2023-04-01T00:45:47;8.60;99.90
5924;DHT22;2987;50.884;14.818;2023-04-01T00:48:16;8.80;99.90
5924;DHT22;2987;50.884;14.818;2023-04-01T00:53:36;8.80;99.90
5924;DHT22;2987;50.884;14.818;2023-04-01T00:56:09;8.50;99.90
5924;DHT22;2987;50.884;14.818;2023-04-01T01:01:05;8.50;99.90
5924;DHT22;2987;50.884;14.818;2023-04-01T01:03:31;8.70;99.90
5924;DHT22;2987;50.884;14.818;2023-04-01T01:06:22;8.60;99.90
5924;DHT22;2987;50.884;14.818;2023-04-01T01:09:02;8.70;99.90
5924;DHT22;2987;50.884;14.818;2023-04-01T01:14:09;8.90;99.90
5924;DHT22;2987;50.884;14.818;2023-04-01T01:16:44;8.60;99.90
5924;DHT22;2987;50.884;14.818;2023-04-01T01:19:26;8.60;99.90
5924;DHT22;2987;50.884;14.818;2023-04-01T01:25:16;8.50;99.90
5924;DHT22;2987;50.884;14.818;2023-04-01T01:33:00;8.50;99.90
5924;DHT22;2987;50.884;14.818;2023-04-01T01:35:44;8.60;99.90
5924;DHT22;2987;50.884;14.818;2023-04-01T01:38:19;8.60;99.90
5924;DHT22;2987;50.884;14.818;2023-04-01T01:40:56;8.80;99.90
5924;DHT22;2987;50.884;14.818;2023-04-01T01:43:29;8.50;99.90
5924;DHT22;2987;50.884;14.818;2023-04-01T01:45:58;8.90;99.90
5924;DHT22;2987;50.884;14.818;2023-04-01T01:48:27;8.80;99.90
5924;DHT22;2987;50.884;14.818;2023-04-01T01:50:55;8.50;99.90
5924;DHT22;2987;50.884;14.818;2023-04-01T01:53:22;8.50;99.90
5924;DHT22;2987;50.884;14.818;2023-04-01T01:55:48;8.90;99.90
5924;DHT22;2987;50.884;14.818;2023-04-01T01:58:22;8.70;99.90
5924;DHT22;2987;50.884;14.818;2023-04-01T02:00:55;8.60;99.90
5924;DHT22;2987;50.884;14.818;2023-04-01T02:03:24;8.60;99.90
5924;DHT22;2987;50.884;14.818;2023-04-01T02:05:54;8.70;99.90
5924;DHT22;2987;50.884;14.818;2023-04-01T02:08:28;8.50;99.90
5924;DHT22;2987;50.884;14.818;2023-04-01T02:11:03;8.70;99.90
5924;DHT22;2987;50.884;14.818;2023-04-01T02:13:43;8.50;99.90
5924;DHT22;2987;50.884;14.818;2023-04-01T02:16:22;8.40;99.90
5924;DHT22;2987;50.884;14.818;2023-04-01T02:18:51;8.40;99.90
5924;DHT22;2987;50.884;14.818;2023-04-01T02:21:22;8.20;99.90
5924;DHT22;2987;50.884;14.818;2023-04-01T02:23:52;8.60;99.90
5924;DHT22;2987;50.884;14.818;2023-04-01T02:26:19;8.30;99.90
5924;DHT22;2987;50.884;14.818;2023-04-01T02:28:46;8.40;99.90
5924;DHT22;2987;50.884;14.818;2023-04-01T02:31:15;8.20;99.90
5924;DHT22;2987;50.884;14.818;2023-04-01T02:33:42;8.20;99.90
5924;DHT22;2987;50.884;14.818;2023-04-01T02:36:13;8.20;99.90
5924;DHT22;2987;50.884;14.818;2023-04-01T02:38:41;8.40;99.90
5924;DHT22;2987;50.884;14.818;2023-04-01T02:41:07;8.20;99.90
5924;DHT22;2987;50.884;14.818;2023-04-01T02:43:33;8.20;99.90
5924;DHT22;2987;50.884;14.818;2023-04-01T02:45:59;8.40;99.90
5924;DHT22;2987;50.884;14.818;2023-04-01T02:48:28;8.20;99.90
5924;DHT22;2987;50.884;14.818;2023-04-01T02:50:54;8.10;99.90
5924;DHT22;2987;50.884;14.818;2023-04-01T02:53:21;8.20;99.90
5924;DHT22;2987;50.884;14.818;2023-04-01T02:55:47;8.20;99.90
5924;DHT22;2987;50.884;14.818;2023-04-01T02:58:17;8.20;99.90
5924;DHT22;2987;50.884;14.818;2023-04-01T03:00:43;8.40;99.90
5924;DHT22;2987;50.884;14.818;2023-04-01T03:03:09;8.20;99.90
5924;DHT22;2987;50.884;14.818;2023-04-01T03:05:35;8.40;99.90
5924;DHT22;2987;50.884;14.818;2023-04-01T03:08:02;8.30;99.90
5924;DHT22;2987;50.884;14.818;2023-04-01T03:10:28;8.40;99.90
5924;DHT22;2987;50.884;14.818;2023-04-01T03:12:54;8.20;99.90
5924;DHT22;2987;50.884;14.818;2023-04-01T03:15:21;8.40;99.90
5924;DHT22;2987;50.884;14.818;2023-04-01T03:17:47;8.50;99.90
5924;DHT22;2987;50.884;14.818;2023-04-01T03:20:13;8.20;99.90
5924;DHT22;2987;50.884;14.818;2023-04-01T03:22:41;8.50;99.90
5924;DHT22;2987;50.884;14.818;2023-04-01T03:25:07;8.10;99.90
5924;DHT22;2987;50.884;14.818;2023-04-01T03:27:34;8.10;99.90
5924;DHT22;2987;50.884;14.818;2023-04-01T03:30:03;8.10;99.90
5924;DHT22;2987;50.884;14.818;2023-04-01T03:32:34;7.90;99.90
5924;DHT22;2987;50.884;14.818;2023-04-01T03:35:00;8.20;99.90
5924;DHT22;2987;50.884;14.818;2023-04-01T03:37:27;8.20;99.90
5924;DHT22;2987;50.884;14.818;2023-04-01T03:39:53;8.10;99.90
5924;DHT22;2987;50.884;14.818;2023-04-01T03:42:19;8.20;99.90
5924;DHT22;2987;50.884;14.818;2023-04-01T03:44:45;8.30;99.90
5924;DHT22;2987;50.884;14.818;2023-04-01T03:47:12;8.30;99.90
5924;DHT22;2987;50.884;14.818;2023-04-01T03:49:38;8.30;99.90
5924;DHT22;2987;50.884;14.818;2023-04-01T03:52:09;8.20;99.90
5924;DHT22;2987;50.884;14.818;2023-04-01T03:54:35;8.40;99.90
5924;DHT22;2987;50.884;14.818;2023-04-01T03:57:01;7.90;99.90
5924;DHT22;2987;50.884;14.818;2023-04-01T03:59:28;8.10;99.90
5924;DHT22;2987;50.884;14.818;2023-04-01T04:01:54;8.20;99.90
5924;DHT22;2987;50.884;14.818;2023-04-01T04:04:20;8.40;99.90
5924;DHT22;2987;50.884;14.818;2023-04-01T04:06:47;8.20;99.90
5924;DHT22;2987;50.884;14.818;2023-04-01T04:09:15;8.20;99.90
5924;DHT22;2987;50.884;14.818;2023-04-01T04:11:41;8.40;99.90
5924;DHT22;2987;50.884;14.818;2023-04-01T04:14:08;8.40;99.90
5924;DHT22;2987;50.884;14.818;2023-04-01T04:16:35;8.20;99.90
5924;DHT22;2987;50.884;14.818;2023-04-01T04:19:04;8.10;99.90
5924;DHT22;2987;50.884;14.818;2023-04-01T04:21:30;8.20;99.90
5924;DHT22;2987;50.884;14.818;2023-04-01T04:23:59;8.10;99.90
5924;DHT22;2987;50.884;14.818;2023-04-01T04:26:27;8.20;99.90
5924;DHT22;2987;50.884;14.818;2023-04-01T04:28:58;8.20;99.90
5924;DHT22;2987;50.884;14.818;2023-04-01T04:31:26;8.30;99.90
5924;DHT22;2987;50.884;14.818;2023-04-01T04:33:55;8.20;99.90
5924;DHT22;2987;50.884;14.818;2023-04-01T04:36:21;8.20;99.90
5924;DHT22;2987;50.884;14.818;2023-04-01T04:38:49;8.40;99.90
5924;DHT22;2987;50.884;14.818;2023-04-01T04:41:17;8.30;99.90
5924;DHT22;2987;50.884;14.818;2023-04-01T04:43:50;8.30;99.90
5924;DHT22;2987;50.884;14.818;2023-04-01T04:46:17;8.20;99.90
5924;DHT22;2987;50.884;14.818;2023-04-01T04:48:45;8.40;99.90
5924;DHT22;2987;50.884;14.818;2023-04-01T04:51:14;8.60;99.90
5924;DHT22;2987;50.884;14.818;2023-04-01T04:53:41;8.50;99.90
5924;DHT22;2987;50.884;14.818;2023-04-01T04:56:07;8.50;99.90
5924;DHT22;2987;50.884;14.818;2023-04-01T04:58:42;8.30;99.90
5924;DHT22;2987;50.884;14.818;2023-04-01T05:01:13;8.50;99.90
5924;DHT22;2987;50.884;14.818;2023-04-01T05:03:40;8.80;99.90
5924;DHT22;2987;50.884;14.818;2023-04-01T05:06:08;8.70;99.90
5924;DHT22;2987;50.884;14.818;2023-04-01T05:08:35;8.60;99.90
5924;DHT22;2987;50.884;14.818;2023-04-01T05:11:02;8.50;99.90
5924;DHT22;2987;50.884;14.818;2023-04-01T05:13:29;8.50;99.90
5924;DHT22;2987;50.884;14.818;2023-04-01T05:15:59;8.90;99.90
5924;DHT22;2987;50.884;14.818;2023-04-01T05:18:25;8.60;99.90
5924;DHT22;2987;50.884;14.818;2023-04-01T05:20:54;8.70;99.90
5924;DHT22;2987;50.884;14.818;2023-04-01T05:23:22;8.70;99.90
5924;DHT22;2987;50.884;14.818;2023-04-01T05:25:49;8.90;99.90
5924;DHT22;2987;50.884;14.818;2023-04-01T05:28:17;8.70;99.90
5924;DHT22;2987;50.884;14.818;2023-04-01T05:30:46;8.60;99.90
5924;DHT22;2987;50.884;14.818;2023-04-01T05:33:21;8.60;99.90
5924;DHT22;2987;50.884;14.818;2023-04-01T05:35:48;8.70;99.90
5924;DHT22;2987;50.884;14.818;2023-04-01T05:38:14;8.90;99.90
5924;DHT22;2987;50.884;14.818;2023-04-01T05:40:43;8.50;99.90
5924;DHT22;2987;50.884;14.818;2023-04-01T05:43:09;8.80;99.90
5924;DHT22;2987;50.884;14.818;2023-04-01T05:45:36;8.60;99.90
5924;DHT22;2987;50.884;14.818;2023-04-01T05:48:22;8.70;99.90
5924;DHT22;2987;50.884;14.818;2023-04-01T05:50:48;8.70;99.90
5924;DHT22;2987;50.884;14.818;2023-04-01T05:53:15;8.90;99.90
5924;DHT22;2987;50.884;14.818;2023-04-01T05:55:41;8.60;99.90
5924;DHT22;2987;50.884;14.818;2023-04-01T05:58:07;8.80;99.90
5924;DHT22;2987;50.884;14.818;2023-04-01T06:00:35;8.90;99.90
5924;DHT22;2987;50.884;14.818;2023-04-01T06:03:02;9.00;99.90
5924;DHT22;2987;50.884;14.818;2023-04-01T06:05:30;9.10;99.90
5924;DHT22;2987;50.884;14.818;2023-04-01T06:08:02;9.00;99.90
5924;DHT22;2987;50.884;14.818;2023-04-01T06:10:55;9.20;99.90
5924;DHT22;2987;50.884;14.818;2023-04-01T06:16:26;9.30;99.90
5924;DHT22;2987;50.884;14.818;2023-04-01T06:19:21;9.30;99.90
5924;DHT22;2987;50.884;14.818;2023-04-01T06:24:44;9.50;99.90
5924;DHT22;2987;50.884;14.818;2023-04-01T06:30:30;9.50;99.90
5924;DHT22;2987;50.884;14.818;2023-04-01T06:33:30;9.80;99.90
5924;DHT22;2987;50.884;14.818;2023-04-01T06:39:12;9.70;99.90
5924;DHT22;2987;50.884;14.818;2023-04-01T06:45:02;9.70;99.90
5924;DHT22;2987;50.884;14.818;2023-04-01T06:54:11;10.00;99.90
5924;DHT22;2987;50.884;14.818;2023-04-01T06:57:03;10.00;99.90
5924;DHT22;2987;50.884;14.818;2023-04-01T06:59:34;10.10;99.90
5924;DHT22;2987;50.884;14.818;2023-04-01T07:02:36;10.20;99.90
5924;DHT22;2987;50.884;14.818;2023-04-01T07:05:05;10.20;99.90
5924;DHT22;2987;50.884;14.818;2023-04-01T07:07:50;10.20;99.90
5924;DHT22;2987;50.884;14.818;2023-04-01T07:10:26;10.30;99.90
5924;DHT22;2987;50.884;14.818;2023-04-01T07:13:34;10.30;99.90
5924;DHT22;2987;50.884;14.818;2023-04-01T07:16:27;10.40;99.90
5924;DHT22;2987;50.884;14.818;2023-04-01T07:21:41;10.50;99.90
5924;DHT22;2987;50.884;14.818;2023-04-01T07:24:27;10.60;99.90
5924;DHT22;2987;50.884;14.818;2023-04-01T07:27:05;10.50;99.90
5924;DHT22;2987;50.884;14.818;2023-04-01T07:29:33;10.50;99.90
5924;DHT22;2987;50.884;14.818;2023-04-01T07:32:19;10.70;99.90
5924;DHT22;2987;50.884;14.818;2023-04-01T07:41:01;10.60;99.90
5924;DHT22;2987;50.884;14.818;2023-04-01T07:43:44;10.70;99.90
5924;DHT22;2987;50.884;14.818;2023-04-01T07:46:49;10.80;99.90
5924;DHT22;2987;50.884;14.818;2023-04-01T07:49:27;11.10;99.90
5924;DHT22;2987;50.884;14.818;2023-04-01T07:52:12;10.90;99.90
5924;DHT22;2987;50.884;14.818;2023-04-01T07:57:19;11.00;99.90
5924;DHT22;2987;50.884;14.818;2023-04-01T08:00:09;11.10;99.90
5924;DHT22;2987;50.884;14.818;2023-04-01T08:23:17;11.60;99.90
5924;DHT22;2987;50.884;14.818;2023-04-01T08:25:52;11.60;99.90
5924;DHT22;2987;50.884;14.818;2023-04-01T08:28:27;11.60;99.90
5924;DHT22;2987;50.884;14.818;2023-04-01T08:31:12;11.60;99.90
5924;DHT22;2987;50.884;14.818;2023-04-01T08:38:59;11.60;99.90
5924;DHT22;2987;50.884;14.818;2023-04-01T08:44:48;11.60;99.90
5924;DHT22;2987;50.884;14.818;2023-04-01T09:22:19;12.60;99.90
5924;DHT22;2987;50.884;14.818;2023-04-01T09:27:34;12.60;99.90
5924;DHT22;2987;50.884;14.818;2023-04-01T09:30:31;12.70;99.90
5924;DHT22;2987;50.884;14.818;2023-04-01T09:33:24;12.90;99.90
5924;DHT22;2987;50.884;14.818;2023-04-01T09:36:07;13.10;99.90
5924;DHT22;2987;50.884;14.818;2023-04-01T09:38:55;13.30;99.90
5924;DHT22;2987;50.884;14.818;2023-04-01T09:41:30;13.80;99.90
5924;DHT22;2987;50.884;14.818;2023-04-01T09:44:18;14.10;99.90
5924;DHT22;2987;50.884;14.818;2023-04-01T09:53:17;14.60;99.90
5924;DHT22;2987;50.884;14.818;2023-04-01T09:55:56;14.50;99.90
5924;DHT22;2987;50.884;14.818;2023-04-01T10:04:49;14.30;99.90
5924;DHT22;2987;50.884;14.818;2023-04-01T10:30:43;14.20;99.90
5924;DHT22;2987;50.884;14.818;2023-04-01T10:39:08;13.80;99.90
5924;DHT22;2987;50.884;14.818;2023-04-01T10:42:08;13.50;99.90
5924;DHT22;2987;50.884;14.818;2023-04-01T10:53:46;14.10;99.90
5924;DHT22;2987;50.884;14.818;2023-04-01T11:08:51;15.80;99.90
5924;DHT22;2987;50.884;14.818;2023-04-01T11:11:39;16.00;99.90
5924;DHT22;2987;50.884;14.818;2023-04-01T11:14:38;16.00;99.90
5924;DHT22;2987;50.884;14.818;2023-04-01T11:28:39;16.00;99.90
5924;DHT22;2987;50.884;14.818;2023-04-01T11:31:47;16.10;99.90
5924;DHT22;2987;50.884;14.818;2023-04-01T11:40:40;16.40;99.90
5924;DHT22;2987;50.884;14.818;2023-04-01T11:43:49;16.30;99.90
5924;DHT22;2987;50.884;14.818;2023-04-01T11:46:30;16.10;99.90
5924;DHT22;2987;50.884;14.818;2023-04-01T11:52:02;16.30;99.90
5924;DHT22;2987;50.884;14.818;2023-04-01T12:00:02;16.30;99.90
5924;DHT22;2987;50.884;14.818;2023-04-01T12:03:10;16.00;99.90
5924;DHT22;2987;50.884;14.818;2023-04-01T12:13:48;15.00;99.90
5924;DHT22;2987;50.884;14.818;2023-04-01T12:16:46;14.90;99.90
5924;DHT22;2987;50.884;14.818;2023-04-01T12:19:41;14.80;99.90
5924;DHT22;2987;50.884;14.818;2023-04-01T12:27:36;14.70;99.90
5924;DHT22;2987;50.884;14.818;2023-04-01T12:36:04;15.20;99.90
5924;DHT22;2987;50.884;14.818;2023-04-01T12:41:38;15.70;99.90
5924;DHT22;2987;50.884;14.818;2023-04-01T12:44:23;15.80;99.90
5924;DHT22;2987;50.884;14.818;2023-04-01T12:52:36;15.70;99.90
5924;DHT22;2987;50.884;14.818;2023-04-01T13:00:45;15.10;99.90
5924;DHT22;2987;50.884;14.818;2023-04-01T13:03:37;14.90;99.90
5924;DHT22;2987;50.884;14.818;2023-04-01T13:25:27;14.90;99.90
5924;DHT22;2987;50.884;14.818;2023-04-01T13:28:20;14.90;99.90
5924;DHT22;2987;50.884;14.818;2023-04-01T13:31:21;14.90;99.90
5924;DHT22;2987;50.884;14.818;2023-04-01T13:41:56;15.10;99.90
5924;DHT22;2987;50.884;14.818;2023-04-01T13:44:34;15.10;99.90
5924;DHT22;2987;50.884;14.818;2023-04-01T13:47:36;15.10;99.90
5924;DHT22;2987;50.884;14.818;2023-04-01T13:50:23;15.00;99.90
5924;DHT22;2987;50.884;14.818;2023-04-01T13:55:35;14.80;99.90
5924;DHT22;2987;50.884;14.818;2023-04-01T14:01:35;14.50;99.90
5924;DHT22;2987;50.884;14.818;2023-04-01T14:07:18;13.90;99.90
5924;DHT22;2987;50.884;14.818;2023-04-01T14:20:28;12.80;99.90
5924;DHT22;2987;50.884;14.818;2023-04-01T14:28:51;13.20;99.90
5924;DHT22;2987;50.884;14.818;2023-04-01T14:31:34;13.20;99.90
5924;DHT22;2987;50.884;14.818;2023-04-01T14:37:01;13.40;99.90
5924;DHT22;2987;50.884;14.818;2023-04-01T14:48:07;13.30;99.90
5924;DHT22;2987;50.884;14.818;2023-04-01T14:53:28;13.10;99.90
5924;DHT22;2987;50.884;14.818;2023-04-01T14:56:00;13.10;99.90
5924;DHT22;2987;50.884;14.818;2023-04-01T14:58:44;13.00;99.90
5924;DHT22;2987;50.884;14.818;2023-04-01T15:01:37;12.70;99.90
5924;DHT22;2987;50.884;14.818;2023-04-01T15:04:29;12.50;99.90
5924;DHT22;2987;50.884;14.818;2023-04-01T15:13:12;12.00;99.90
5924;DHT22;2987;50.884;14.818;2023-04-01T15:23:49;11.90;99.90
5924;DHT22;2987;50.884;14.818;2023-04-01T15:32:19;11.90;99.90
5924;DHT22;2987;50.884;14.818;2023-04-01T15:37:22;11.90;99.90
5924;DHT22;2987;50.884;14.818;2023-04-01T15:40:20;11.90;99.90
5924;DHT22;2987;50.884;14.818;2023-04-01T15:53:29;12.00;99.90
5924;DHT22;2987;50.884;14.818;2023-04-01T15:56:11;12.10;99.90
5924;DHT22;2987;50.884;14.818;2023-04-01T16:10:19;11.90;99.90
5924;DHT22;2987;50.884;14.818;2023-04-01T16:19:04;11.60;99.90
5924;DHT22;2987;50.884;14.818;2023-04-01T16:21:51;11.60;99.90
5924;DHT22;2987;50.884;14.818;2023-04-01T16:29:58;11.30;99.90
5924;DHT22;2987;50.884;14.818;2023-04-01T16:32:37;11.20;99.90
5924;DHT22;2987;50.884;14.818;2023-04-01T16:35:30;11.20;99.90
5924;DHT22;2987;50.884;14.818;2023-04-01T16:40:59;11.00;99.90
5924;DHT22;2987;50.884;14.818;2023-04-01T16:43:27;11.00;99.90
5924;DHT22;2987;50.884;14.818;2023-04-01T16:46:12;11.00;99.90
5924;DHT22;2987;50.884;14.818;2023-04-01T16:54:45;10.90;99.90
5924;DHT22;2987;50.884;14.818;2023-04-01T16:57:25;10.80;99.90
5924;DHT22;2987;50.884;14.818;2023-04-01T17:00:14;10.70;99.90
5924;DHT22;2987;50.884;14.818;2023-04-01T17:02:48;10.70;99.90
5924;DHT22;2987;50.884;14.818;2023-04-01T17:05:16;10.70;99.90
5924;DHT22;2987;50.884;14.818;2023-04-01T17:07:48;10.70;99.90
5924;DHT22;2987;50.884;14.818;2023-04-01T17:18:50;10.60;99.90
5924;DHT22;2987;50.884;14.818;2023-04-01T17:29:21;10.30;99.90
5924;DHT22;2987;50.884;14.818;2023-04-01T17:32:09;10.20;99.90
5924;DHT22;2987;50.884;14.818;2023-04-01T17:37:30;10.20;99.90
5924;DHT22;2987;50.884;14.818;2023-04-01T17:40:16;10.20;99.90
5924;DHT22;2987;50.884;14.818;2023-04-01T17:43:01;10.10;99.90
5924;DHT22;2987;50.884;14.818;2023-04-01T17:45:42;10.10;99.90
5924;DHT22;2987;50.884;14.818;2023-04-01T17:51:24;10.10;99.90
5924;DHT22;2987;50.884;14.818;2023-04-01T18:02:27;10.00;99.90
5924;DHT22;2987;50.884;14.818;2023-04-01T18:21:34;9.80;99.90
5924;DHT22;2987;50.884;14.818;2023-04-01T18:27:22;9.80;99.90
5924;DHT22;2987;50.884;14.818;2023-04-01T18:29:55;9.70;99.90
5924;DHT22;2987;50.884;14.818;2023-04-01T18:32:32;9.70;99.90
5924;DHT22;2987;50.884;14.818;2023-04-01T18:35:27;9.90;99.90
5924;DHT22;2987;50.884;14.818;2023-04-01T18:38:03;9.70;99.90
5924;DHT22;2987;50.884;14.818;2023-04-01T18:40:42;9.60;99.90
5924;DHT22;2987;50.884;14.818;2023-04-01T18:51:57;9.60;99.90
5924;DHT22;2987;50.884;14.818;2023-04-01T18:57:08;9.50;99.90
5924;DHT22;2987;50.884;14.818;2023-04-01T18:59:57;9.60;99.90
5924;DHT22;2987;50.884;14.818;2023-04-01T19:02:34;9.50;99.90
5924;DHT22;2987;50.884;14.818;2023-04-01T19:07:48;9.50;99.90
5924;DHT22;2987;50.884;14.818;2023-04-01T19:18:58;9.60;99.90
5924;DHT22;2987;50.884;14.818;2023-04-01T19:21:38;9.30;99.90
5924;DHT22;2987;50.884;14.818;2023-04-01T19:27:34;9.30;99.90
5924;DHT22;2987;50.884;14.818;2023-04-01T19:33:32;9.20;99.90
5924;DHT22;2987;50.884;14.818;2023-04-01T19:50:06;9.20;99.90
5924;DHT22;2987;50.884;14.818;2023-04-01T19:52:40;9.20;99.90
5924;DHT22;2987;50.884;14.818;2023-04-01T19:55:29;9.20;99.90
5924;DHT22;2987;50.884;14.818;2023-04-01T19:58:23;9.20;99.90
5924;DHT22;2987;50.884;14.818;2023-04-01T20:00:54;9.10;99.90
5924;DHT22;2987;50.884;14.818;2023-04-01T20:03:33;9.30;99.90
5924;DHT22;2987;50.884;14.818;2023-04-01T20:08:56;9.30;99.90
5924;DHT22;2987;50.884;14.818;2023-04-01T20:11:44;9.20;99.90
5924;DHT22;2987;50.884;14.818;2023-04-01T20:14:40;9.20;99.90
5924;DHT22;2987;50.884;14.818;2023-04-01T20:17:20;9.30;99.90
5924;DHT22;2987;50.884;14.818;2023-04-01T20:19:59;9.20;99.90
5924;DHT22;2987;50.884;14.818;2023-04-01T20:23:03;9.10;99.90
5924;DHT22;2987;50.884;14.818;2023-04-01T20:25:40;9.20;99.90
5924;DHT22;2987;50.884;14.818;2023-04-01T20:28:21;9.10;99.90
5924;DHT22;2987;50.884;14.818;2023-04-01T20:36:43;9.10;99.90
5924;DHT22;2987;50.884;14.818;2023-04-01T20:45:14;9.20;99.90
5924;DHT22;2987;50.884;14.818;2023-04-01T20:50:47;9.10;99.90
5924;DHT22;2987;50.884;14.818;2023-04-01T20:53:36;9.20;99.90
5924;DHT22;2987;50.884;14.818;2023-04-01T20:56:17;9.10;99.90
5924;DHT22;2987;50.884;14.818;2023-04-01T21:02:21;9.00;99.90
5924;DHT22;2987;50.884;14.818;2023-04-01T21:13:15;9.30;99.90
5924;DHT22;2987;50.884;14.818;2023-04-01T21:27:25;9.20;99.90
5924;DHT22;2987;50.884;14.818;2023-04-01T21:33:07;9.00;99.90
5924;DHT22;2987;50.884;14.818;2023-04-01T21:35:37;9.30;99.90
5924;DHT22;2987;50.884;14.818;2023-04-01T21:38:14;9.00;99.90
5924;DHT22;2987;50.884;14.818;2023-04-01T21:43:29;9.20;99.90
5924;DHT22;2987;50.884;14.818;2023-04-01T22:08:35;9.20;99.90
5924;DHT22;2987;50.884;14.818;2023-04-01T22:13:38;9.00;99.90
5924;DHT22;2987;50.884;14.818;2023-04-01T22:16:16;8.80;99.90
5924;DHT22;2987;50.884;14.818;2023-04-01T22:18:54;8.90;99.90
5924;DHT22;2987;50.884;14.818;2023-04-01T22:24:28;9.00;99.90
5924;DHT22;2987;50.884;14.818;2023-04-01T22:27:15;8.90;99.90
5924;DHT22;2987;50.884;14.818;2023-04-01T22:32:28;9.20;99.90
5924;DHT22;2987;50.884;14.818;2023-04-01T22:35:05;8.90;99.90
5924;DHT22;2987;50.884;14.818;2023-04-01T22:37:49;8.90;99.90
5924;DHT22;2987;50.884;14.818;2023-04-01T22:43:12;8.90;99.90
5924;DHT22;2987;50.884;14.818;2023-04-01T22:54:27;9.10;99.90
5924;DHT22;2987;50.884;14.818;2023-04-01T22:59:52;8.90;99.90
5924;DHT22;2987;50.884;14.818;2023-04-01T23:02:25;8.90;99.90
5924;DHT22;2987;50.884;14.818;2023-04-01T23:04:57;9.10;99.90
5924;DHT22;2987;50.884;14.818;2023-04-01T23:10:51;8.90;99.90
5924;DHT22;2987;50.884;14.818;2023-04-01T23:15:46;9.10;99.90
5924;DHT22;2987;50.884;14.818;2023-04-01T23:18:51;8.60;99.90
5924;DHT22;2987;50.884;14.818;2023-04-01T23:21:30;8.80;99.90
5924;DHT22;2987;50.884;14.818;2023-04-01T23:24:25;8.90;99.90
5924;DHT22;2987;50.884;14.818;2023-04-01T23:26:59;8.60;99.90
5924;DHT22;2987;50.884;14.818;2023-04-01T23:29:28;8.80;99.90
5924;DHT22;2987;50.884;14.818;2023-04-01T23:31:59;8.60;99.90
5924;DHT22;2987;50.884;14.818;2023-04-01T23:34:35;8.70;99.90
5924;DHT22;2987;50.884;14.818;2023-04-01T23:37:05;8.70;99.90
5924;DHT22;2987;50.884;14.818;2023-04-01T23:39:39;8.50;99.90
5924;DHT22;2987;50.884;14.818;2023-04-01T23:44:43;8.60;99.90
5924;DHT22;2987;50.884;14.818;2023-04-01T23:47:15;8.80;99.90
5924;DHT22;2987;50.884;14.818;2023-04-01T23:49:46;8.50;99.90
5924;DHT22;2987;50.884;14.818;2023-04-01T23:52:27;8.50;99.90
5924;DHT22;2987;50.884;14.818;2023-04-01T23:54:59;8.30;99.90
5924;DHT22;2987;50.884;14.818;2023-04-01T23:57:30;8.40;99.90
